sensor_id;sensor_type;location;lat;lon;timestamp;P1;durP1;ratioP1;P2;durP2;ratioP2
61505;SDS011;47366;51.916;4.574;2023-07-28T06:36:56;3.63;;;1.48;;
61505;SDS011;47366;51.916;4.574;2023-07-28T06:39:23;3.78;;;1.73;;
61505;SDS011;47366;51.916;4.574;2023-07-28T06:41:49;6.68;;;2.03;;
61505;SDS011;47366;51.916;4.574;2023-07-28T06:44:15;4.32;;;1.85;;
61505;SDS011;47366;51.916;4.574;2023-07-28T06:46:40;5.22;;;1.77;;
61505;SDS011;47366;51.916;4.574;2023-07-28T06:49:06;4.45;;;1.35;;
61505;SDS011;47366;51.916;4.574;2023-07-28T06:51:31;2.50;;;1.55;;
61505;SDS011;47366;51.916;4.574;2023-07-28T06:53:58;2.83;;;1.55;;
61505;SDS011;47366;51.916;4.574;2023-07-28T06:56:24;2.92;;;1.52;;
61505;SDS011;47366;51.916;4.574;2023-07-28T06:58:51;2.60;;;1.40;;
61505;SDS011;47366;51.916;4.574;2023-07-28T07:01:17;4.93;;;1.35;;
61505;SDS011;47366;51.916;4.574;2023-07-28T07:03:43;3.38;;;1.75;;
61505;SDS011;47366;51.916;4.574;2023-07-28T07:06:08;4.15;;;1.15;;
61505;SDS011;47366;51.916;4.574;2023-07-28T07:08:34;6.10;;;1.85;;
61505;SDS011;47366;51.916;4.574;2023-07-28T07:10:59;6.75;;;1.75;;
61505;SDS011;47366;51.916;4.574;2023-07-28T07:13:25;2.80;;;1.50;;
61505;SDS011;47366;51.916;4.574;2023-07-28T07:15:50;6.28;;;1.80;;
61505;SDS011;47366;51.916;4.574;2023-07-28T07:18:16;2.95;;;1.42;;
61505;SDS011;47366;51.916;4.574;2023-07-28T07:20:41;3.28;;;1.48;;
61505;SDS011;47366;51.916;4.574;2023-07-28T07:23:07;2.67;;;1.60;;
61505;SDS011;47366;51.916;4.574;2023-07-28T07:25:32;5.55;;;1.55;;
61505;SDS011;47366;51.916;4.574;2023-07-28T07:27:57;2.67;;;1.42;;
61505;SDS011;47366;51.916;4.574;2023-07-28T07:30:23;3.28;;;1.17;;
61505;SDS011;47366;51.916;4.574;2023-07-28T07:32:48;3.83;;;1.60;;
61505;SDS011;47366;51.916;4.574;2023-07-28T07:35:14;3.58;;;1.33;;
61505;SDS011;47366;51.916;4.574;2023-07-28T07:37:39;3.50;;;1.58;;
61505;SDS011;47366;51.916;4.574;2023-07-28T07:40:06;3.47;;;1.58;;
61505;SDS011;47366;51.916;4.574;2023-07-28T07:42:48;2.92;;;1.58;;
61505;SDS011;47366;51.916;4.574;2023-07-28T07:45:14;5.13;;;1.70;;
61505;SDS011;47366;51.916;4.574;2023-07-28T07:47:40;3.72;;;1.63;;
61505;SDS011;47366;51.916;4.574;2023-07-28T07:50:07;6.43;;;1.80;;
61505;SDS011;47366;51.916;4.574;2023-07-28T07:52:36;4.35;;;2.08;;
61505;SDS011;47366;51.916;4.574;2023-07-28T07:55:03;7.18;;;1.83;;
61505;SDS011;47366;51.916;4.574;2023-07-28T07:57:29;7.05;;;1.73;;
61505;SDS011;47366;51.916;4.574;2023-07-28T07:59:55;5.40;;;1.73;;
61505;SDS011;47366;51.916;4.574;2023-07-28T08:02:23;2.55;;;1.58;;
61505;SDS011;47366;51.916;4.574;2023-07-28T08:04:49;2.03;;;1.17;;
61505;SDS011;47366;51.916;4.574;2023-07-28T08:07:15;2.58;;;1.52;;
61505;SDS011;47366;51.916;4.574;2023-07-28T08:09:41;4.57;;;1.90;;
61505;SDS011;47366;51.916;4.574;2023-07-28T08:12:07;2.83;;;1.75;;
61505;SDS011;47366;51.916;4.574;2023-07-28T08:14:33;3.05;;;1.55;;
61505;SDS011;47366;51.916;4.574;2023-07-28T08:16:59;1.92;;;1.25;;
61505;SDS011;47366;51.916;4.574;2023-07-28T08:19:24;3.33;;;1.75;;
61505;SDS011;47366;51.916;4.574;2023-07-28T08:21:49;5.57;;;1.63;;
61505;SDS011;47366;51.916;4.574;2023-07-28T08:24:16;5.10;;;1.63;;
61505;SDS011;47366;51.916;4.574;2023-07-28T08:26:41;2.95;;;1.75;;
61505;SDS011;47366;51.916;4.574;2023-07-28T08:29:06;3.20;;;1.67;;
61505;SDS011;47366;51.916;4.574;2023-07-28T08:31:32;4.75;;;1.65;;
61505;SDS011;47366;51.916;4.574;2023-07-28T08:33:57;5.05;;;2.00;;
61505;SDS011;47366;51.916;4.574;2023-07-28T08:36:22;5.90;;;1.63;;
61505;SDS011;47366;51.916;4.574;2023-07-28T08:38:48;4.70;;;1.67;;
61505;SDS011;47366;51.916;4.574;2023-07-28T08:41:14;4.25;;;1.92;;
61505;SDS011;47366;51.916;4.574;2023-07-28T08:43:39;4.32;;;1.77;;
61505;SDS011;47366;51.916;4.574;2023-07-28T08:46:05;3.40;;;1.80;;
61505;SDS011;47366;51.916;4.574;2023-07-28T08:48:30;2.38;;;1.50;;
61505;SDS011;47366;51.916;4.574;2023-07-28T08:50:56;4.50;;;1.80;;
61505;SDS011;47366;51.916;4.574;2023-07-28T08:53:22;3.17;;;1.88;;
61505;SDS011;47366;51.916;4.574;2023-07-28T08:55:47;3.38;;;1.77;;
61505;SDS011;47366;51.916;4.574;2023-07-28T08:58:16;3.63;;;1.75;;
61505;SDS011;47366;51.916;4.574;2023-07-28T09:00:46;2.65;;;1.52;;
61505;SDS011;47366;51.916;4.574;2023-07-28T09:03:16;3.10;;;1.75;;
61505;SDS011;47366;51.916;4.574;2023-07-28T09:05:42;4.50;;;1.88;;
61505;SDS011;47366;51.916;4.574;2023-07-28T09:08:09;3.67;;;1.30;;
61505;SDS011;47366;51.916;4.574;2023-07-28T09:10:41;4.25;;;2.03;;
61505;SDS011;47366;51.916;4.574;2023-07-28T09:13:11;4.68;;;1.60;;
61505;SDS011;47366;51.916;4.574;2023-07-28T09:15:38;3.05;;;1.60;;
61505;SDS011;47366;51.916;4.574;2023-07-28T09:18:04;4.95;;;2.22;;
61505;SDS011;47366;51.916;4.574;2023-07-28T09:20:33;2.25;;;1.33;;
61505;SDS011;47366;51.916;4.574;2023-07-28T09:23:00;3.58;;;1.60;;
61505;SDS011;47366;51.916;4.574;2023-07-28T09:25:27;5.43;;;1.75;;
61505;SDS011;47366;51.916;4.574;2023-07-28T09:27:53;3.17;;;1.75;;
61505;SDS011;47366;51.916;4.574;2023-07-28T09:30:19;6.50;;;1.65;;
61505;SDS011;47366;51.916;4.574;2023-07-28T09:32:50;4.80;;;1.80;;
61505;SDS011;47366;51.916;4.574;2023-07-28T09:35:17;4.45;;;1.75;;
61505;SDS011;47366;51.916;4.574;2023-07-28T09:37:44;2.80;;;1.85;;
61505;SDS011;47366;51.916;4.574;2023-07-28T09:40:13;3.08;;;1.58;;
61505;SDS011;47366;51.916;4.574;2023-07-28T09:42:43;3.00;;;1.45;;
61505;SDS011;47366;51.916;4.574;2023-07-28T09:45:15;5.40;;;1.58;;
61505;SDS011;47366;51.916;4.574;2023-07-28T09:47:42;3.38;;;1.73;;
61505;SDS011;47366;51.916;4.574;2023-07-28T09:50:10;2.65;;;1.25;;
61505;SDS011;47366;51.916;4.574;2023-07-28T09:52:39;2.97;;;1.60;;
61505;SDS011;47366;51.916;4.574;2023-07-28T09:55:08;4.78;;;1.73;;
61505;SDS011;47366;51.916;4.574;2023-07-28T09:57:38;2.78;;;1.38;;
61505;SDS011;47366;51.916;4.574;2023-07-28T10:00:11;4.72;;;1.55;;
61505;SDS011;47366;51.916;4.574;2023-07-28T10:02:39;3.17;;;1.30;;
61505;SDS011;47366;51.916;4.574;2023-07-28T10:05:05;2.65;;;1.50;;
61505;SDS011;47366;51.916;4.574;2023-07-28T10:07:35;5.30;;;1.65;;
61505;SDS011;47366;51.916;4.574;2023-07-28T10:10:05;2.72;;;1.65;;
61505;SDS011;47366;51.916;4.574;2023-07-28T10:15:17;4.18;;;1.17;;
61505;SDS011;47366;51.916;4.574;2023-07-28T10:17:49;3.60;;;1.10;;
61505;SDS011;47366;51.916;4.574;2023-07-28T10:20:33;2.70;;;1.42;;
61505;SDS011;47366;51.916;4.574;2023-07-28T10:26:04;4.10;;;1.63;;
61505;SDS011;47366;51.916;4.574;2023-07-28T10:28:37;4.03;;;1.25;;
61505;SDS011;47366;51.916;4.574;2023-07-28T10:31:06;3.83;;;1.27;;
61505;SDS011;47366;51.916;4.574;2023-07-28T10:36:00;4.40;;;1.63;;
61505;SDS011;47366;51.916;4.574;2023-07-28T10:38:38;5.32;;;1.63;;
61505;SDS011;47366;51.916;4.574;2023-07-28T10:41:07;3.13;;;1.40;;
61505;SDS011;47366;51.916;4.574;2023-07-28T10:43:38;2.67;;;1.25;;
61505;SDS011;47366;51.916;4.574;2023-07-28T10:46:04;3.22;;;1.20;;
61505;SDS011;47366;51.916;4.574;2023-07-28T10:48:34;1.77;;;1.23;;
61505;SDS011;47366;51.916;4.574;2023-07-28T10:51:00;1.55;;;0.80;;
61505;SDS011;47366;51.916;4.574;2023-07-28T10:53:25;3.30;;;1.10;;
61505;SDS011;47366;51.916;4.574;2023-07-28T10:55:52;2.08;;;1.23;;
61505;SDS011;47366;51.916;4.574;2023-07-28T10:58:18;2.40;;;1.02;;
61505;SDS011;47366;51.916;4.574;2023-07-28T11:00:45;2.88;;;1.00;;
61505;SDS011;47366;51.916;4.574;2023-07-28T11:03:10;1.98;;;0.85;;
61505;SDS011;47366;51.916;4.574;2023-07-28T11:05:37;1.50;;;1.02;;
61505;SDS011;47366;51.916;4.574;2023-07-28T11:08:03;1.70;;;0.88;;
61505;SDS011;47366;51.916;4.574;2023-07-28T11:10:29;1.50;;;0.98;;
61505;SDS011;47366;51.916;4.574;2023-07-28T11:12:57;1.13;;;0.75;;
61505;SDS011;47366;51.916;4.574;2023-07-28T11:15:25;2.95;;;1.40;;
61505;SDS011;47366;51.916;4.574;2023-07-28T11:17:51;3.50;;;1.15;;
61505;SDS011;47366;51.916;4.574;2023-07-28T11:20:24;3.40;;;1.10;;
61505;SDS011;47366;51.916;4.574;2023-07-28T11:23:03;1.38;;;0.88;;
61505;SDS011;47366;51.916;4.574;2023-07-28T11:25:30;1.67;;;1.00;;
61505;SDS011;47366;51.916;4.574;2023-07-28T11:27:57;1.85;;;1.00;;
61505;SDS011;47366;51.916;4.574;2023-07-28T11:30:23;1.63;;;1.10;;
61505;SDS011;47366;51.916;4.574;2023-07-28T11:32:49;1.65;;;1.13;;
61505;SDS011;47366;51.916;4.574;2023-07-28T11:35:16;5.90;;;1.20;;
61505;SDS011;47366;51.916;4.574;2023-07-28T11:37:44;2.47;;;1.38;;
61505;SDS011;47366;51.916;4.574;2023-07-28T11:40:11;3.90;;;1.35;;
61505;SDS011;47366;51.916;4.574;2023-07-28T11:43:12;4.85;;;2.00;;
61505;SDS011;47366;51.916;4.574;2023-07-28T11:45:31;2.85;;;1.30;;
61505;SDS011;47366;51.916;4.574;2023-07-28T11:50:23;2.30;;;1.30;;
61505;SDS011;47366;51.916;4.574;2023-07-28T11:52:58;3.28;;;1.45;;
61505;SDS011;47366;51.916;4.574;2023-07-28T11:55:24;3.58;;;1.38;;
61505;SDS011;47366;51.916;4.574;2023-07-28T11:57:51;3.65;;;1.50;;
61505;SDS011;47366;51.916;4.574;2023-07-28T12:00:18;2.63;;;1.50;;
61505;SDS011;47366;51.916;4.574;2023-07-28T12:02:59;3.13;;;1.60;;
61505;SDS011;47366;51.916;4.574;2023-07-28T12:05:26;3.00;;;2.00;;
61505;SDS011;47366;51.916;4.574;2023-07-28T12:07:52;5.78;;;2.38;;
61505;SDS011;47366;51.916;4.574;2023-07-28T12:10:18;5.80;;;2.22;;
61505;SDS011;47366;51.916;4.574;2023-07-28T12:12:44;5.00;;;2.50;;
61505;SDS011;47366;51.916;4.574;2023-07-28T12:20:34;5.18;;;3.28;;
61505;SDS011;47366;51.916;4.574;2023-07-28T12:23:00;6.78;;;3.05;;
61505;SDS011;47366;51.916;4.574;2023-07-28T12:25:26;6.57;;;3.35;;
61505;SDS011;47366;51.916;4.574;2023-07-28T12:27:51;4.80;;;2.60;;
61505;SDS011;47366;51.916;4.574;2023-07-28T12:30:17;4.82;;;2.80;;
61505;SDS011;47366;51.916;4.574;2023-07-28T12:32:42;5.03;;;2.95;;
61505;SDS011;47366;51.916;4.574;2023-07-28T12:35:08;7.88;;;3.08;;
61505;SDS011;47366;51.916;4.574;2023-07-28T12:37:34;5.40;;;2.95;;
61505;SDS011;47366;51.916;4.574;2023-07-28T12:39:59;4.80;;;3.00;;
61505;SDS011;47366;51.916;4.574;2023-07-28T12:42:26;5.43;;;2.97;;
61505;SDS011;47366;51.916;4.574;2023-07-28T12:44:51;5.47;;;3.28;;
61505;SDS011;47366;51.916;4.574;2023-07-28T12:47:17;5.07;;;3.40;;
61505;SDS011;47366;51.916;4.574;2023-07-28T12:49:42;7.30;;;3.88;;
61505;SDS011;47366;51.916;4.574;2023-07-28T12:52:08;7.85;;;4.07;;
61505;SDS011;47366;51.916;4.574;2023-07-28T12:54:34;7.07;;;3.97;;
61505;SDS011;47366;51.916;4.574;2023-07-28T12:56:59;6.03;;;3.58;;
61505;SDS011;47366;51.916;4.574;2023-07-28T12:59:26;7.25;;;4.40;;
61505;SDS011;47366;51.916;4.574;2023-07-28T13:01:52;6.38;;;3.88;;
61505;SDS011;47366;51.916;4.574;2023-07-28T13:04:17;5.53;;;3.58;;
61505;SDS011;47366;51.916;4.574;2023-07-28T13:06:42;5.95;;;3.80;;
61505;SDS011;47366;51.916;4.574;2023-07-28T13:09:08;7.72;;;4.10;;
61505;SDS011;47366;51.916;4.574;2023-07-28T13:11:34;5.00;;;3.35;;
61505;SDS011;47366;51.916;4.574;2023-07-28T13:14:00;6.72;;;3.70;;
61505;SDS011;47366;51.916;4.574;2023-07-28T13:16:25;9.48;;;4.43;;
61505;SDS011;47366;51.916;4.574;2023-07-28T13:18:51;6.38;;;4.20;;
61505;SDS011;47366;51.916;4.574;2023-07-28T13:21:17;8.85;;;3.83;;
61505;SDS011;47366;51.916;4.574;2023-07-28T13:23:42;9.63;;;4.40;;
61505;SDS011;47366;51.916;4.574;2023-07-28T13:26:08;7.45;;;4.07;;
61505;SDS011;47366;51.916;4.574;2023-07-28T13:28:33;9.32;;;4.35;;
61505;SDS011;47366;51.916;4.574;2023-07-28T13:31:01;6.38;;;3.22;;
61505;SDS011;47366;51.916;4.574;2023-07-28T13:33:28;7.28;;;3.38;;
61505;SDS011;47366;51.916;4.574;2023-07-28T13:35:53;4.50;;;3.00;;
61505;SDS011;47366;51.916;4.574;2023-07-28T13:38:19;7.13;;;3.50;;
61505;SDS011;47366;51.916;4.574;2023-07-28T13:40:44;6.05;;;3.80;;
61505;SDS011;47366;51.916;4.574;2023-07-28T13:43:09;6.25;;;3.70;;
61505;SDS011;47366;51.916;4.574;2023-07-28T13:45:35;5.72;;;3.65;;
61505;SDS011;47366;51.916;4.574;2023-07-28T13:48:00;5.63;;;2.92;;
61505;SDS011;47366;51.916;4.574;2023-07-28T13:50:25;5.38;;;3.45;;
61505;SDS011;47366;51.916;4.574;2023-07-28T13:52:51;4.75;;;3.03;;
61505;SDS011;47366;51.916;4.574;2023-07-28T13:55:16;4.95;;;3.55;;
61505;SDS011;47366;51.916;4.574;2023-07-28T13:57:42;4.82;;;3.38;;
61505;SDS011;47366;51.916;4.574;2023-07-28T14:00:08;4.50;;;3.50;;
61505;SDS011;47366;51.916;4.574;2023-07-28T14:02:34;6.38;;;3.78;;
61505;SDS011;47366;51.916;4.574;2023-07-28T14:05:01;5.68;;;3.63;;
61505;SDS011;47366;51.916;4.574;2023-07-28T14:07:26;5.15;;;3.47;;
61505;SDS011;47366;51.916;4.574;2023-07-28T14:09:51;4.85;;;3.17;;
61505;SDS011;47366;51.916;4.574;2023-07-28T14:12:17;5.45;;;3.38;;
61505;SDS011;47366;51.916;4.574;2023-07-28T14:14:43;5.05;;;3.03;;
61505;SDS011;47366;51.916;4.574;2023-07-28T14:17:08;4.10;;;2.80;;
61505;SDS011;47366;51.916;4.574;2023-07-28T14:19:34;4.82;;;3.10;;
61505;SDS011;47366;51.916;4.574;2023-07-28T14:21:59;4.70;;;3.30;;
61505;SDS011;47366;51.916;4.574;2023-07-28T14:24:24;3.30;;;2.30;;
61505;SDS011;47366;51.916;4.574;2023-07-28T14:26:50;3.65;;;2.05;;
61505;SDS011;47366;51.916;4.574;2023-07-28T14:29:15;3.35;;;1.95;;
61505;SDS011;47366;51.916;4.574;2023-07-28T14:31:40;2.88;;;1.95;;
61505;SDS011;47366;51.916;4.574;2023-07-28T14:34:06;2.83;;;1.80;;
61505;SDS011;47366;51.916;4.574;2023-07-28T14:36:31;3.67;;;2.08;;
61505;SDS011;47366;51.916;4.574;2023-07-28T14:38:59;2.63;;;1.75;;
61505;SDS011;47366;51.916;4.574;2023-07-28T14:41:24;6.13;;;2.65;;
61505;SDS011;47366;51.916;4.574;2023-07-28T14:43:50;3.85;;;2.50;;
61505;SDS011;47366;51.916;4.574;2023-07-28T14:46:15;3.75;;;2.15;;
61505;SDS011;47366;51.916;4.574;2023-07-28T14:48:41;2.88;;;2.00;;
61505;SDS011;47366;51.916;4.574;2023-07-28T14:51:06;4.20;;;2.08;;
61505;SDS011;47366;51.916;4.574;2023-07-28T14:53:38;2.80;;;1.80;;
61505;SDS011;47366;51.916;4.574;2023-07-28T14:56:05;2.75;;;2.03;;
61505;SDS011;47366;51.916;4.574;2023-07-28T14:58:31;3.00;;;1.63;;
61505;SDS011;47366;51.916;4.574;2023-07-28T15:00:57;2.55;;;1.73;;
61505;SDS011;47366;51.916;4.574;2023-07-28T15:03:25;2.38;;;1.45;;
61505;SDS011;47366;51.916;4.574;2023-07-28T15:05:51;2.15;;;1.67;;
61505;SDS011;47366;51.916;4.574;2023-07-28T15:08:17;2.88;;;1.88;;
61505;SDS011;47366;51.916;4.574;2023-07-28T15:10:42;2.92;;;1.98;;
61505;SDS011;47366;51.916;4.574;2023-07-28T15:13:07;5.40;;;1.73;;
61505;SDS011;47366;51.916;4.574;2023-07-28T15:15:33;2.38;;;1.63;;
61505;SDS011;47366;51.916;4.574;2023-07-28T15:17:59;2.90;;;1.95;;
61505;SDS011;47366;51.916;4.574;2023-07-28T15:20:24;4.20;;;2.05;;
61505;SDS011;47366;51.916;4.574;2023-07-28T15:22:49;3.22;;;1.80;;
61505;SDS011;47366;51.916;4.574;2023-07-28T15:25:15;2.80;;;1.70;;
61505;SDS011;47366;51.916;4.574;2023-07-28T15:27:40;3.58;;;1.80;;
61505;SDS011;47366;51.916;4.574;2023-07-28T15:30:07;2.60;;;1.60;;
61505;SDS011;47366;51.916;4.574;2023-07-28T15:32:36;2.17;;;1.38;;
61505;SDS011;47366;51.916;4.574;2023-07-28T15:35:02;1.85;;;1.45;;
61505;SDS011;47366;51.916;4.574;2023-07-28T15:37:28;2.83;;;1.65;;
61505;SDS011;47366;51.916;4.574;2023-07-28T15:39:54;2.53;;;1.63;;
61505;SDS011;47366;51.916;4.574;2023-07-28T15:42:19;1.98;;;1.42;;
61505;SDS011;47366;51.916;4.574;2023-07-28T15:44:45;1.83;;;1.35;;
61505;SDS011;47366;51.916;4.574;2023-07-28T15:47:11;2.40;;;1.38;;
61505;SDS011;47366;51.916;4.574;2023-07-28T15:49:36;1.60;;;1.15;;
61505;SDS011;47366;51.916;4.574;2023-07-28T15:52:01;2.65;;;1.27;;
61505;SDS011;47366;51.916;4.574;2023-07-28T15:54:27;1.60;;;1.17;;
61505;SDS011;47366;51.916;4.574;2023-07-28T15:56:53;1.65;;;1.17;;
61505;SDS011;47366;51.916;4.574;2023-07-28T15:59:19;1.33;;;1.00;;
61505;SDS011;47366;51.916;4.574;2023-07-28T16:01:44;2.63;;;1.20;;
61505;SDS011;47366;51.916;4.574;2023-07-28T16:04:09;1.80;;;1.33;;
61505;SDS011;47366;51.916;4.574;2023-07-28T16:06:35;1.80;;;1.20;;
61505;SDS011;47366;51.916;4.574;2023-07-28T16:09:00;1.65;;;1.00;;
61505;SDS011;47366;51.916;4.574;2023-07-28T16:11:25;1.13;;;0.95;;
61505;SDS011;47366;51.916;4.574;2023-07-28T16:13:51;2.28;;;1.20;;
61505;SDS011;47366;51.916;4.574;2023-07-28T16:16:16;2.70;;;1.23;;
61505;SDS011;47366;51.916;4.574;2023-07-28T16:18:41;1.60;;;1.17;;
61505;SDS011;47366;51.916;4.574;2023-07-28T16:21:07;2.70;;;1.67;;
61505;SDS011;47366;51.916;4.574;2023-07-28T16:23:32;1.58;;;1.02;;
61505;SDS011;47366;51.916;4.574;2023-07-28T16:25:57;1.80;;;1.25;;
61505;SDS011;47366;51.916;4.574;2023-07-28T16:28:23;2.55;;;1.55;;
61505;SDS011;47366;51.916;4.574;2023-07-28T16:30:48;0.95;;;0.82;;
61505;SDS011;47366;51.916;4.574;2023-07-28T16:33:14;1.70;;;1.15;;
61505;SDS011;47366;51.916;4.574;2023-07-28T16:35:39;2.17;;;1.23;;
61505;SDS011;47366;51.916;4.574;2023-07-28T16:38:04;2.42;;;1.38;;
61505;SDS011;47366;51.916;4.574;2023-07-28T16:40:30;1.50;;;1.02;;
61505;SDS011;47366;51.916;4.574;2023-07-28T16:42:56;2.90;;;1.38;;
61505;SDS011;47366;51.916;4.574;2023-07-28T16:45:22;3.38;;;0.93;;
61505;SDS011;47366;51.916;4.574;2023-07-28T16:47:47;1.38;;;1.17;;
61505;SDS011;47366;51.916;4.574;2023-07-28T16:50:13;1.88;;;1.20;;
61505;SDS011;47366;51.916;4.574;2023-07-28T16:52:38;1.08;;;0.85;;
61505;SDS011;47366;51.916;4.574;2023-07-28T16:55:04;1.50;;;1.08;;
61505;SDS011;47366;51.916;4.574;2023-07-28T16:57:29;1.50;;;1.10;;
61505;SDS011;47366;51.916;4.574;2023-07-28T16:59:55;1.88;;;1.30;;
61505;SDS011;47366;51.916;4.574;2023-07-28T17:02:20;1.58;;;1.08;;
61505;SDS011;47366;51.916;4.574;2023-07-28T17:04:45;1.20;;;0.77;;
61505;SDS011;47366;51.916;4.574;2023-07-28T17:07:11;2.10;;;1.10;;
61505;SDS011;47366;51.916;4.574;2023-07-28T17:09:36;1.52;;;1.00;;
61505;SDS011;47366;51.916;4.574;2023-07-28T17:12:02;1.30;;;0.95;;
61505;SDS011;47366;51.916;4.574;2023-07-28T17:14:27;0.82;;;0.70;;
61505;SDS011;47366;51.916;4.574;2023-07-28T17:16:54;1.20;;;1.00;;
61505;SDS011;47366;51.916;4.574;2023-07-28T17:19:20;1.67;;;0.95;;
61505;SDS011;47366;51.916;4.574;2023-07-28T17:21:45;2.67;;;0.90;;
61505;SDS011;47366;51.916;4.574;2023-07-28T17:24:11;1.70;;;1.10;;
61505;SDS011;47366;51.916;4.574;2023-07-28T17:26:36;1.35;;;0.98;;
61505;SDS011;47366;51.916;4.574;2023-07-28T17:29:02;0.95;;;0.85;;
61505;SDS011;47366;51.916;4.574;2023-07-28T17:31:27;1.10;;;0.73;;
61505;SDS011;47366;51.916;4.574;2023-07-28T17:33:53;1.25;;;0.85;;
61505;SDS011;47366;51.916;4.574;2023-07-28T17:36:18;1.02;;;0.90;;
61505;SDS011;47366;51.916;4.574;2023-07-28T17:38:44;1.67;;;1.08;;
61505;SDS011;47366;51.916;4.574;2023-07-28T17:41:09;1.23;;;0.80;;
61505;SDS011;47366;51.916;4.574;2023-07-28T17:43:34;1.83;;;0.95;;
61505;SDS011;47366;51.916;4.574;2023-07-28T17:46:00;1.30;;;0.90;;
61505;SDS011;47366;51.916;4.574;2023-07-28T17:48:26;2.40;;;0.90;;
61505;SDS011;47366;51.916;4.574;2023-07-28T17:50:52;1.50;;;1.00;;
61505;SDS011;47366;51.916;4.574;2023-07-28T17:53:18;1.25;;;0.90;;
61505;SDS011;47366;51.916;4.574;2023-07-28T17:55:45;2.30;;;1.00;;
61505;SDS011;47366;51.916;4.574;2023-07-28T17:58:11;1.20;;;0.98;;
61505;SDS011;47366;51.916;4.574;2023-07-28T18:00:36;1.52;;;0.93;;
61505;SDS011;47366;51.916;4.574;2023-07-28T18:03:02;2.65;;;1.20;;
61505;SDS011;47366;51.916;4.574;2023-07-28T18:05:28;2.10;;;1.13;;
61505;SDS011;47366;51.916;4.574;2023-07-28T18:07:54;1.73;;;1.00;;
61505;SDS011;47366;51.916;4.574;2023-07-28T18:10:19;2.20;;;1.13;;
61505;SDS011;47366;51.916;4.574;2023-07-28T18:12:44;1.35;;;0.90;;
61505;SDS011;47366;51.916;4.574;2023-07-28T18:15:10;2.35;;;1.23;;
61505;SDS011;47366;51.916;4.574;2023-07-28T18:17:35;1.98;;;1.10;;
61505;SDS011;47366;51.916;4.574;2023-07-28T18:20:01;2.05;;;0.90;;
61505;SDS011;47366;51.916;4.574;2023-07-28T18:22:28;2.72;;;1.50;;
61505;SDS011;47366;51.916;4.574;2023-07-28T18:24:53;1.85;;;1.10;;
61505;SDS011;47366;51.916;4.574;2023-07-28T18:27:19;1.10;;;0.88;;
61505;SDS011;47366;51.916;4.574;2023-07-28T18:29:44;1.45;;;1.02;;
61505;SDS011;47366;51.916;4.574;2023-07-28T18:32:09;6.13;;;1.08;;
61505;SDS011;47366;51.916;4.574;2023-07-28T18:34:35;2.65;;;1.00;;
61505;SDS011;47366;51.916;4.574;2023-07-28T18:37:00;1.55;;;0.70;;
61505;SDS011;47366;51.916;4.574;2023-07-28T18:39:26;2.20;;;1.00;;
61505;SDS011;47366;51.916;4.574;2023-07-28T18:41:51;2.65;;;0.75;;
61505;SDS011;47366;51.916;4.574;2023-07-28T18:44:17;0.20;;;0.20;;
61505;SDS011;47366;51.916;4.574;2023-07-28T18:46:42;0.77;;;0.45;;
61505;SDS011;47366;51.916;4.574;2023-07-28T18:49:07;2.55;;;0.82;;
61505;SDS011;47366;51.916;4.574;2023-07-28T18:51:34;1.15;;;0.60;;
61505;SDS011;47366;51.916;4.574;2023-07-28T18:53:59;0.40;;;0.30;;
61505;SDS011;47366;51.916;4.574;2023-07-28T18:56:25;2.47;;;0.47;;
61505;SDS011;47366;51.916;4.574;2023-07-28T18:58:50;1.85;;;0.25;;
61505;SDS011;47366;51.916;4.574;2023-07-28T19:01:16;2.63;;;0.50;;
61505;SDS011;47366;51.916;4.574;2023-07-28T19:03:41;0.75;;;0.30;;
61505;SDS011;47366;51.916;4.574;2023-07-28T19:06:07;0.55;;;0.30;;
61505;SDS011;47366;51.916;4.574;2023-07-28T19:08:32;0.25;;;0.20;;
61505;SDS011;47366;51.916;4.574;2023-07-28T19:10:58;0.57;;;0.28;;
61505;SDS011;47366;51.916;4.574;2023-07-28T19:13:23;0.47;;;0.22;;
61505;SDS011;47366;51.916;4.574;2023-07-28T19:15:49;3.13;;;0.52;;
61505;SDS011;47366;51.916;4.574;2023-07-28T19:18:15;0.45;;;0.40;;
61505;SDS011;47366;51.916;4.574;2023-07-28T19:20:40;1.20;;;0.40;;
61505;SDS011;47366;51.916;4.574;2023-07-28T19:23:06;1.02;;;0.30;;
61505;SDS011;47366;51.916;4.574;2023-07-28T19:25:32;0.20;;;0.20;;
61505;SDS011;47366;51.916;4.574;2023-07-28T19:27:58;0.77;;;0.20;;
61505;SDS011;47366;51.916;4.574;2023-07-28T19:30:24;0.28;;;0.15;;
61505;SDS011;47366;51.916;4.574;2023-07-28T19:32:49;1.13;;;0.47;;
61505;SDS011;47366;51.916;4.574;2023-07-28T19:35:14;0.30;;;0.30;;
61505;SDS011;47366;51.916;4.574;2023-07-28T19:37:40;0.47;;;0.30;;
61505;SDS011;47366;51.916;4.574;2023-07-28T19:40:05;0.22;;;0.20;;
61505;SDS011;47366;51.916;4.574;2023-07-28T19:42:32;0.20;;;0.10;;
61505;SDS011;47366;51.916;4.574;2023-07-28T19:44:58;0.38;;;0.22;;
61505;SDS011;47366;51.916;4.574;2023-07-28T19:47:23;0.45;;;0.20;;
61505;SDS011;47366;51.916;4.574;2023-07-28T19:49:49;0.73;;;0.30;;
61505;SDS011;47366;51.916;4.574;2023-07-28T19:52:15;0.68;;;0.20;;
61505;SDS011;47366;51.916;4.574;2023-07-28T19:54:41;1.23;;;0.30;;
61505;SDS011;47366;51.916;4.574;2023-07-28T19:57:06;0.30;;;0.30;;
61505;SDS011;47366;51.916;4.574;2023-07-28T19:59:32;0.15;;;0.15;;
61505;SDS011;47366;51.916;4.574;2023-07-28T20:01:57;1.17;;;0.30;;
61505;SDS011;47366;51.916;4.574;2023-07-28T20:04:23;0.10;;;0.10;;
61505;SDS011;47366;51.916;4.574;2023-07-28T20:06:51;0.45;;;0.25;;
61505;SDS011;47366;51.916;4.574;2023-07-28T20:09:16;0.65;;;0.22;;
61505;SDS011;47366;51.916;4.574;2023-07-28T20:11:42;0.15;;;0.10;;
61505;SDS011;47366;51.916;4.574;2023-07-28T20:14:07;0.40;;;0.20;;
61505;SDS011;47366;51.916;4.574;2023-07-28T20:16:33;0.43;;;0.30;;
61505;SDS011;47366;51.916;4.574;2023-07-28T20:18:58;0.98;;;0.40;;
61505;SDS011;47366;51.916;4.574;2023-07-28T20:21:24;0.80;;;0.28;;
61505;SDS011;47366;51.916;4.574;2023-07-28T20:23:50;0.82;;;0.20;;
61505;SDS011;47366;51.916;4.574;2023-07-28T20:26:15;0.57;;;0.43;;
61505;SDS011;47366;51.916;4.574;2023-07-28T20:28:41;0.40;;;0.30;;
61505;SDS011;47366;51.916;4.574;2023-07-28T20:31:06;0.50;;;0.20;;
61505;SDS011;47366;51.916;4.574;2023-07-28T20:33:32;0.32;;;0.20;;
61505;SDS011;47366;51.916;4.574;2023-07-28T20:35:57;0.30;;;0.30;;
61505;SDS011;47366;51.916;4.574;2023-07-28T20:38:23;0.73;;;0.28;;
61505;SDS011;47366;51.916;4.574;2023-07-28T20:40:48;0.20;;;0.20;;
61505;SDS011;47366;51.916;4.574;2023-07-28T20:43:13;0.25;;;0.25;;
61505;SDS011;47366;51.916;4.574;2023-07-28T20:45:39;0.45;;;0.20;;
61505;SDS011;47366;51.916;4.574;2023-07-28T20:48:04;0.70;;;0.20;;
61505;SDS011;47366;51.916;4.574;2023-07-28T20:50:29;1.13;;;0.35;;
61505;SDS011;47366;51.916;4.574;2023-07-28T20:52:55;0.28;;;0.25;;
61505;SDS011;47366;51.916;4.574;2023-07-28T20:55:20;0.15;;;0.10;;
61505;SDS011;47366;51.916;4.574;2023-07-28T20:57:45;0.47;;;0.20;;
61505;SDS011;47366;51.916;4.574;2023-07-28T21:00:11;0.20;;;0.20;;
61505;SDS011;47366;51.916;4.574;2023-07-28T21:02:37;1.65;;;0.32;;
61505;SDS011;47366;51.916;4.574;2023-07-28T21:05:03;1.33;;;0.20;;
61505;SDS011;47366;51.916;4.574;2023-07-28T21:07:28;0.30;;;0.30;;
61505;SDS011;47366;51.916;4.574;2023-07-28T21:09:54;0.60;;;0.20;;
61505;SDS011;47366;51.916;4.574;2023-07-28T21:12:22;2.45;;;0.40;;
61505;SDS011;47366;51.916;4.574;2023-07-28T21:14:48;1.15;;;0.40;;
61505;SDS011;47366;51.916;4.574;2023-07-28T21:17:14;0.55;;;0.20;;
